UAE1408 MMMX-EGLL
Flight info
| Callsign | UAE1408 |
|---|---|
| Flight time | N/A |
| Altitude | 35000 |
| Route | IKLAN2A IKLAN UT140 TAM UM575 CLONN M575 TBD DCT HRV Q56 CATLN Q64 SAWED/N0491F370 Q64 KALDA Q445 KYSKY Q430 ACK DCT TUSKY N429A ELSIR/M086F390 DCT 50N050W 51N040W 52N030W 53N020W DCT MALOT DCT GISTI/N0485F390 DCT ENJEX DCT AVZAC DCT INFEC DCT JETZI DCT AMFUL DCT ORZEB/N0390F230 P2 SIRIC |
| Aircraft | A388/J-SADE2E3FGHIJ3J4J5M1RWXY/LB1D1 |
Departure
| Time | 2026-05-06 01:38 |
|---|---|
| Airport | Mexico City Benito Juárez International Airport (MMMX) |
Arrival
| Time | N/A |
|---|---|
| Airport | London Heathrow Airport (EGLL) |
| Time | Latitude | Longitude | Altitude | Speed | Heading |
|---|---|---|---|---|---|
| 2026-05-06 00:55 | 19.43418 | -99.08251 | 7309 ft | 0 kts | 330° |
| 2026-05-06 01:23 | 19.43413 | -99.08248 | 7309 ft | 2 kts | 329° |
| 2026-05-06 01:24 | 19.43398 | -99.08239 | 7312 ft | 2 kts | 328° |
| 2026-05-06 01:24 | 19.43385 | -99.08229 | 7309 ft | 2 kts | 324° |
| 2026-05-06 01:24 | 19.43372 | -99.08218 | 7310 ft | 2 kts | 316° |
| 2026-05-06 01:24 | 19.43366 | -99.08202 | 7310 ft | 2 kts | 269° |
| 2026-05-06 01:25 | 19.43369 | -99.08194 | 7310 ft | 0 kts | 246° |
| 2026-05-06 01:28 | 19.43367 | -99.08200 | 7310 ft | 1 kts | 240° |
| 2026-05-06 01:28 | 19.43358 | -99.08214 | 7310 ft | 3 kts | 238° |
| 2026-05-06 01:29 | 19.43343 | -99.08240 | 7310 ft | 5 kts | 238° |
| 2026-05-06 01:29 | 19.43321 | -99.08276 | 7309 ft | 7 kts | 238° |
| 2026-05-06 01:29 | 19.43295 | -99.08322 | 7309 ft | 8 kts | 239° |
| 2026-05-06 01:29 | 19.43264 | -99.08378 | 7309 ft | 10 kts | 239° |
| 2026-05-06 01:30 | 19.43228 | -99.08443 | 7308 ft | 11 kts | 239° |
| 2026-05-06 01:30 | 19.43190 | -99.08513 | 7308 ft | 11 kts | 240° |
| 2026-05-06 01:30 | 19.43150 | -99.08587 | 7308 ft | 12 kts | 239° |
| 2026-05-06 01:30 | 19.43108 | -99.08662 | 7308 ft | 12 kts | 239° |
| 2026-05-06 01:31 | 19.43064 | -99.08742 | 7308 ft | 13 kts | 239° |
| 2026-05-06 01:31 | 19.43019 | -99.08822 | 7308 ft | 13 kts | 239° |
| 2026-05-06 01:31 | 19.42974 | -99.08901 | 7309 ft | 13 kts | 239° |
| 2026-05-06 01:31 | 19.42930 | -99.08980 | 7309 ft | 12 kts | 237° |
| 2026-05-06 01:32 | 19.42880 | -99.09035 | 7308 ft | 0 kts | 217° |
| 2026-05-06 01:32 | 19.42879 | -99.09035 | 7308 ft | 1 kts | 217° |
| 2026-05-06 01:32 | 19.42876 | -99.09038 | 7308 ft | 0 kts | 205° |
| 2026-05-06 01:33 | 19.42875 | -99.09038 | 7309 ft | 1 kts | 205° |
| 2026-05-06 01:33 | 19.42872 | -99.09039 | 7309 ft | 0 kts | 205° |
| 2026-05-06 01:34 | 19.42863 | -99.09044 | 7308 ft | 3 kts | 206° |
| 2026-05-06 01:34 | 19.42841 | -99.09055 | 7309 ft | 4 kts | 206° |
| 2026-05-06 01:34 | 19.42811 | -99.09072 | 7309 ft | 6 kts | 206° |
| 2026-05-06 01:35 | 19.42776 | -99.09083 | 7310 ft | 4 kts | 175° |
| 2026-05-06 01:35 | 19.42770 | -99.09082 | 7309 ft | 0 kts | 152° |
| 2026-05-06 01:35 | 19.42769 | -99.09081 | 7309 ft | 0 kts | 148° |
| 2026-05-06 01:36 | 19.42765 | -99.09079 | 7309 ft | 1 kts | 140° |
| 2026-05-06 01:36 | 19.42761 | -99.09074 | 7310 ft | 1 kts | 120° |
| 2026-05-06 01:36 | 19.42758 | -99.09066 | 7310 ft | 1 kts | 95° |
| 2026-05-06 01:36 | 19.42760 | -99.09051 | 7310 ft | 4 kts | 77° |
| 2026-05-06 01:37 | 19.42768 | -99.09028 | 7310 ft | 6 kts | 64° |
| 2026-05-06 01:37 | 19.42818 | -99.08939 | 7310 ft | 27 kts | 58° |
| 2026-05-06 01:37 | 19.42930 | -99.08743 | 7309 ft | 70 kts | 58° |
| 2026-05-06 01:37 | 19.43298 | -99.08087 | 7310 ft | 134 kts | 59° |
| 2026-05-06 01:38 | 19.43865 | -99.07097 | 7311 ft | 177 kts | 58° |
| 2026-05-06 01:38 | 19.44554 | -99.05904 | 7376 ft | 201 kts | 58° |
| 2026-05-06 01:38 | 19.45232 | -99.04705 | 8172 ft | 181 kts | 59° |
| 2026-05-06 01:38 | 19.45885 | -99.03511 | 8630 ft | 188 kts | 59° |
| 2026-05-06 01:39 | 19.46550 | -99.02296 | 8867 ft | 198 kts | 59° |
| 2026-05-06 01:39 | 19.47271 | -99.01000 | 8979 ft | 209 kts | 59° |
| 2026-05-06 01:39 | 19.48036 | -98.99642 | 9060 ft | 219 kts | 59° |
| 2026-05-06 01:39 | 19.48840 | -98.98222 | 9139 ft | 228 kts | 59° |
| 2026-05-06 01:40 | 19.49679 | -98.96742 | 9232 ft | 246 kts | 59° |
| 2026-05-06 01:40 | 19.50593 | -98.95116 | 9395 ft | 267 kts | 59° |
| 2026-05-06 01:40 | 19.51575 | -98.93361 | 9564 ft | 286 kts | 59° |
| 2026-05-06 01:40 | 19.52613 | -98.91504 | 9865 ft | 299 kts | 59° |
| 2026-05-06 01:41 | 19.53834 | -98.89641 | 10044 ft | 316 kts | 49° |
| 2026-05-06 01:41 | 19.55362 | -98.87910 | 10189 ft | 331 kts | 46° |
| 2026-05-06 01:41 | 19.56968 | -98.86087 | 10350 ft | 345 kts | 47° |
| 2026-05-06 01:41 | 19.58622 | -98.84181 | 10793 ft | 350 kts | 47° |
| 2026-05-06 01:42 | 19.60259 | -98.82287 | 11286 ft | 353 kts | 47° |
| 2026-05-06 01:42 | 19.61935 | -98.80348 | 11763 ft | 357 kts | 47° |
| 2026-05-06 01:42 | 19.63604 | -98.78418 | 12297 ft | 358 kts | 47° |
| 2026-05-06 01:42 | 19.65409 | -98.76572 | 12741 ft | 362 kts | 34° |
| 2026-05-06 01:43 | 19.67669 | -98.75416 | 13255 ft | 363 kts | 15° |
| 2026-05-06 01:43 | 19.70190 | -98.75134 | 13748 ft | 365 kts | 355° |
| 2026-05-06 01:43 | 19.72681 | -98.75621 | 14215 ft | 367 kts | 345° |
| 2026-05-06 01:43 | 19.75126 | -98.76329 | 14670 ft | 370 kts | 345° |
| 2026-05-06 01:44 | 19.77663 | -98.77004 | 15121 ft | 373 kts | 347° |
| 2026-05-06 01:44 | 19.80170 | -98.77568 | 15576 ft | 375 kts | 348° |
| 2026-05-06 01:44 | 19.82768 | -98.78081 | 16051 ft | 377 kts | 349° |
| 2026-05-06 01:44 | 19.85369 | -98.78560 | 16487 ft | 380 kts | 350° |
| 2026-05-06 01:45 | 19.87963 | -98.79026 | 16910 ft | 383 kts | 350° |
| 2026-05-06 01:45 | 19.90562 | -98.79492 | 17334 ft | 385 kts | 350° |
| 2026-05-06 01:45 | 19.93258 | -98.79976 | 17752 ft | 387 kts | 350° |
| 2026-05-06 01:45 | 19.95924 | -98.80456 | 18166 ft | 390 kts | 350° |
| 2026-05-06 01:46 | 19.98580 | -98.80935 | 18544 ft | 392 kts | 350° |
| 2026-05-06 01:46 | 20.01280 | -98.81423 | 18933 ft | 394 kts | 350° |
| 2026-05-06 01:46 | 20.04025 | -98.81920 | 19304 ft | 397 kts | 350° |
| 2026-05-06 01:46 | 20.06689 | -98.82402 | 19648 ft | 399 kts | 350° |
| 2026-05-06 01:47 | 20.09470 | -98.82906 | 19994 ft | 402 kts | 350° |
| 2026-05-06 01:47 | 20.12248 | -98.83410 | 20346 ft | 404 kts | 350° |
| 2026-05-06 01:47 | 20.14998 | -98.83908 | 20705 ft | 406 kts | 350° |
| 2026-05-06 01:47 | 20.17825 | -98.84420 | 21036 ft | 408 kts | 350° |
| 2026-05-06 01:48 | 20.20636 | -98.84930 | 21375 ft | 410 kts | 350° |
| 2026-05-06 01:48 | 20.23445 | -98.85439 | 21648 ft | 413 kts | 350° |
| 2026-05-06 01:48 | 20.26265 | -98.85950 | 21958 ft | 415 kts | 350° |
| 2026-05-06 01:48 | 20.29121 | -98.86468 | 22327 ft | 416 kts | 350° |
| 2026-05-06 01:49 | 20.32006 | -98.86991 | 22596 ft | 419 kts | 350° |
| 2026-05-06 01:49 | 20.34856 | -98.87509 | 22950 ft | 419 kts | 350° |
| 2026-05-06 01:49 | 20.37725 | -98.88030 | 23253 ft | 421 kts | 350° |
| 2026-05-06 01:49 | 20.40648 | -98.88479 | 23593 ft | 422 kts | 357° |
| 2026-05-06 01:50 | 20.43511 | -98.88316 | 23894 ft | 424 kts | 10° |
| 2026-05-06 01:50 | 20.46330 | -98.87450 | 24121 ft | 428 kts | 23° |
| 2026-05-06 01:50 | 20.48989 | -98.86019 | 24445 ft | 429 kts | 27° |
| 2026-05-06 01:50 | 20.51671 | -98.84533 | 24720 ft | 431 kts | 27° |
| 2026-05-06 01:51 | 20.54234 | -98.83133 | 25208 ft | 428 kts | 27° |
| 2026-05-06 01:51 | 20.56884 | -98.81687 | 25332 ft | 435 kts | 27° |
| 2026-05-06 01:51 | 20.59634 | -98.80187 | 25781 ft | 434 kts | 27° |
| 2026-05-06 01:51 | 20.62279 | -98.78741 | 26108 ft | 436 kts | 27° |
| 2026-05-06 01:52 | 20.65020 | -98.77241 | 26377 ft | 440 kts | 27° |
| 2026-05-06 01:52 | 20.67719 | -98.75763 | 26531 ft | 445 kts | 27° |
| 2026-05-06 01:52 | 20.70503 | -98.74237 | 26733 ft | 449 kts | 27° |
| 2026-05-06 01:52 | 20.73272 | -98.72719 | 27256 ft | 445 kts | 27° |
| 2026-05-06 01:53 | 20.76008 | -98.71218 | 27607 ft | 447 kts | 27° |
| 2026-05-06 01:53 | 20.78825 | -98.69672 | 27833 ft | 452 kts | 27° |
| 2026-05-06 01:53 | 20.81621 | -98.68137 | 28179 ft | 454 kts | 27° |
| 2026-05-06 01:53 | 20.84402 | -98.66609 | 28658 ft | 452 kts | 27° |
| 2026-05-06 01:54 | 20.87198 | -98.65073 | 29553 ft | 438 kts | 27° |
| 2026-05-06 01:54 | 20.89856 | -98.63612 | 30548 ft | 425 kts | 27° |
| 2026-05-06 01:54 | 20.92463 | -98.62178 | 30812 ft | 431 kts | 27° |
| 2026-05-06 01:54 | 20.95184 | -98.60682 | 30991 ft | 437 kts | 27° |
| 2026-05-06 01:55 | 20.97907 | -98.59184 | 31353 ft | 439 kts | 27° |
| 2026-05-06 01:55 | 21.00615 | -98.57693 | 31537 ft | 444 kts | 27° |
| 2026-05-06 01:55 | 21.03366 | -98.56177 | 32032 ft | 442 kts | 27° |
| 2026-05-06 01:55 | 21.06074 | -98.54685 | 32390 ft | 443 kts | 27° |
| 2026-05-06 01:56 | 21.08835 | -98.53163 | 32593 ft | 447 kts | 27° |
| 2026-05-06 01:56 | 21.11620 | -98.51628 | 32941 ft | 447 kts | 27° |
| 2026-05-06 01:56 | 21.14381 | -98.50104 | 33319 ft | 447 kts | 27° |
| 2026-05-06 01:56 | 21.17166 | -98.48567 | 33560 ft | 450 kts | 27° |
| 2026-05-06 01:57 | 21.19943 | -98.47034 | 33833 ft | 451 kts | 27° |
| 2026-05-06 01:57 | 21.22725 | -98.45497 | 34053 ft | 454 kts | 27° |
| 2026-05-06 01:57 | 21.25563 | -98.43928 | 34339 ft | 455 kts | 27° |
| 2026-05-06 01:57 | 21.28349 | -98.42388 | 34643 ft | 455 kts | 27° |
| 2026-05-06 01:58 | 21.31185 | -98.40820 | 34977 ft | 455 kts | 27° |
| 2026-05-06 01:58 | 21.33977 | -98.39274 | 34998 ft | 457 kts | 27° |
| 2026-05-06 01:58 | 21.39595 | -98.36163 | 35006 ft | 449 kts | 27° |
| 2026-05-06 01:59 | 21.45133 | -98.33094 | 34997 ft | 452 kts | 27° |
| 2026-05-06 01:59 | 21.50720 | -98.29995 | 34998 ft | 452 kts | 27° |
| 2026-05-06 02:00 | 21.56295 | -98.26900 | 35002 ft | 451 kts | 27° |
| 2026-05-06 02:00 | 21.61894 | -98.23789 | 34995 ft | 452 kts | 27° |
| 2026-05-06 02:01 | 21.67488 | -98.20678 | 35005 ft | 452 kts | 27° |
| 2026-05-06 02:01 | 21.73076 | -98.17567 | 35008 ft | 452 kts | 27° |
| 2026-05-06 02:02 | 21.78636 | -98.14470 | 35007 ft | 453 kts | 27° |
| 2026-05-06 02:02 | 21.84245 | -98.11342 | 35008 ft | 453 kts | 27° |
| 2026-05-06 02:03 | 21.89833 | -98.08223 | 35013 ft | 453 kts | 27° |
| 2026-05-06 02:03 | 21.95426 | -98.05099 | 35011 ft | 453 kts | 27° |
| 2026-05-06 02:04 | 22.01007 | -98.01979 | 35015 ft | 453 kts | 27° |
| 2026-05-06 02:04 | 22.06631 | -97.98831 | 35016 ft | 453 kts | 27° |
| 2026-05-06 02:05 | 22.12192 | -97.95717 | 35015 ft | 453 kts | 27° |
| 2026-05-06 02:05 | 22.17817 | -97.92563 | 35016 ft | 453 kts | 27° |
| 2026-05-06 02:06 | 22.23401 | -97.89430 | 35008 ft | 453 kts | 27° |
| 2026-05-06 02:06 | 22.29006 | -97.86259 | 35006 ft | 453 kts | 30° |
| 2026-05-06 02:07 | 22.34323 | -97.82641 | 35009 ft | 452 kts | 32° |
| 2026-05-06 02:07 | 22.39648 | -97.79021 | 35006 ft | 452 kts | 32° |
| 2026-05-06 02:08 | 22.44956 | -97.75407 | 35001 ft | 452 kts | 32° |
| 2026-05-06 02:08 | 22.50276 | -97.71776 | 34997 ft | 452 kts | 32° |
| 2026-05-06 02:09 | 22.55598 | -97.68138 | 35004 ft | 452 kts | 32° |
| 2026-05-06 02:09 | 22.60891 | -97.64518 | 34999 ft | 452 kts | 32° |
| 2026-05-06 02:10 | 22.66200 | -97.60883 | 34993 ft | 451 kts | 32° |
| 2026-05-06 02:10 | 22.71499 | -97.57251 | 34997 ft | 451 kts | 32° |
| 2026-05-06 02:11 | 22.76811 | -97.53606 | 34996 ft | 451 kts | 32° |
| 2026-05-06 02:11 | 22.82114 | -97.49965 | 35005 ft | 451 kts | 32° |
| 2026-05-06 02:12 | 22.87400 | -97.46331 | 34998 ft | 451 kts | 32° |
| 2026-05-06 02:12 | 22.92677 | -97.42701 | 35003 ft | 450 kts | 32° |
| 2026-05-06 02:13 | 22.97974 | -97.39053 | 35000 ft | 450 kts | 32° |
| 2026-05-06 02:13 | 23.03296 | -97.35385 | 35006 ft | 450 kts | 32° |
| 2026-05-06 02:14 | 23.08579 | -97.31741 | 35005 ft | 450 kts | 32° |
| 2026-05-06 02:14 | 23.13860 | -97.28093 | 34999 ft | 451 kts | 32° |
| 2026-05-06 02:15 | 23.19183 | -97.24416 | 34998 ft | 452 kts | 32° |
| 2026-05-06 02:15 | 23.24549 | -97.20708 | 35000 ft | 467 kts | 32° |
| 2026-05-06 02:16 | 23.30054 | -97.16900 | 35003 ft | 482 kts | 32° |
| 2026-05-06 02:16 | 23.35895 | -97.12855 | 34999 ft | 497 kts | 32° |
| 2026-05-06 02:17 | 23.41651 | -97.08862 | 34999 ft | 489 kts | 32° |
| 2026-05-06 02:17 | 23.47427 | -97.04853 | 34999 ft | 492 kts | 32° |
| 2026-05-06 02:18 | 23.53204 | -97.00838 | 34997 ft | 492 kts | 32° |
| 2026-05-06 02:18 | 23.58933 | -96.96853 | 35001 ft | 492 kts | 32° |
| 2026-05-06 02:19 | 23.64699 | -96.92838 | 35008 ft | 492 kts | 32° |
| 2026-05-06 02:19 | 23.70495 | -96.88797 | 35006 ft | 492 kts | 32° |
| 2026-05-06 02:20 | 23.79131 | -96.82759 | 35011 ft | 492 kts | 32° |
| 2026-05-06 02:21 | 23.84915 | -96.78710 | 35011 ft | 492 kts | 32° |
| 2026-05-06 02:21 | 23.90653 | -96.74689 | 34996 ft | 492 kts | 32° |
| 2026-05-06 02:22 | 23.95470 | -96.71310 | 35001 ft | 492 kts | 32° |
| 2026-05-06 02:22 | 24.01192 | -96.67293 | 35004 ft | 491 kts | 32° |
| 2026-05-06 02:23 | 24.06984 | -96.63222 | 35008 ft | 491 kts | 32° |
| 2026-05-06 02:23 | 24.12706 | -96.59199 | 35001 ft | 491 kts | 32° |
| 2026-05-06 02:24 | 24.18481 | -96.55134 | 35004 ft | 491 kts | 32° |
| 2026-05-06 02:24 | 24.24226 | -96.51086 | 35000 ft | 492 kts | 32° |
| 2026-05-06 02:25 | 24.29973 | -96.47032 | 35002 ft | 492 kts | 32° |
| 2026-05-06 02:25 | 24.35718 | -96.42975 | 35006 ft | 492 kts | 32° |
| 2026-05-06 02:26 | 24.41498 | -96.38888 | 35007 ft | 492 kts | 32° |
| 2026-05-06 02:26 | 24.47200 | -96.34853 | 35001 ft | 492 kts | 32° |
| 2026-05-06 02:27 | 24.52978 | -96.30759 | 34998 ft | 491 kts | 32° |
| 2026-05-06 02:27 | 24.58718 | -96.26688 | 35002 ft | 491 kts | 32° |
| 2026-05-06 02:28 | 24.64443 | -96.22623 | 35007 ft | 491 kts | 33° |
| 2026-05-06 02:28 | 24.70192 | -96.18537 | 35000 ft | 491 kts | 33° |
| 2026-05-06 02:29 | 24.75932 | -96.14455 | 35003 ft | 491 kts | 33° |
| 2026-05-06 02:29 | 24.81652 | -96.10382 | 35001 ft | 491 kts | 33° |
| 2026-05-06 02:30 | 24.87414 | -96.06275 | 35003 ft | 491 kts | 33° |
| 2026-05-06 02:30 | 24.93163 | -96.02173 | 35004 ft | 492 kts | 33° |
| 2026-05-06 02:31 | 24.98877 | -95.98090 | 35000 ft | 492 kts | 33° |
| 2026-05-06 02:31 | 25.04603 | -95.93990 | 35003 ft | 492 kts | 33° |
| 2026-05-06 02:32 | 25.10345 | -95.89875 | 34999 ft | 492 kts | 33° |
| 2026-05-06 02:32 | 25.16071 | -95.85766 | 34998 ft | 492 kts | 33° |
| 2026-05-06 02:33 | 25.21803 | -95.81649 | 34998 ft | 492 kts | 33° |
| 2026-05-06 02:33 | 25.23710 | -95.80278 | 34999 ft | 492 kts | 33° |
| 2026-05-06 02:34 | 25.33273 | -95.73396 | 34996 ft | 491 kts | 33° |
| 2026-05-06 02:34 | 25.38999 | -95.69268 | 35000 ft | 491 kts | 33° |
| 2026-05-06 02:35 | 25.44725 | -95.65136 | 35000 ft | 491 kts | 33° |
| 2026-05-06 02:35 | 25.50444 | -95.61004 | 35001 ft | 491 kts | 33° |
| 2026-05-06 02:36 | 25.56141 | -95.56884 | 35005 ft | 491 kts | 33° |
| 2026-05-06 02:36 | 25.61816 | -95.52721 | 34997 ft | 491 kts | 36° |
| 2026-05-06 02:37 | 25.66937 | -95.47706 | 35004 ft | 491 kts | 45° |
| 2026-05-06 02:37 | 25.71776 | -95.42348 | 35005 ft | 491 kts | 44° |
| 2026-05-06 02:38 | 25.76622 | -95.37018 | 35000 ft | 492 kts | 45° |
| 2026-05-06 02:38 | 25.81491 | -95.31642 | 35005 ft | 492 kts | 45° |
| 2026-05-06 02:39 | 25.86345 | -95.26271 | 35007 ft | 492 kts | 45° |
| 2026-05-06 02:39 | 25.91188 | -95.20905 | 35005 ft | 492 kts | 45° |
| 2026-05-06 02:40 | 25.96028 | -95.15536 | 35001 ft | 492 kts | 45° |
| 2026-05-06 02:40 | 26.00892 | -95.10134 | 34999 ft | 492 kts | 45° |
| 2026-05-06 02:41 | 26.05723 | -95.04761 | 34998 ft | 492 kts | 45° |
| 2026-05-06 02:41 | 26.10560 | -94.99375 | 35006 ft | 492 kts | 45° |
| 2026-05-06 02:42 | 26.15391 | -94.93989 | 35004 ft | 492 kts | 45° |
| 2026-05-06 02:42 | 26.20221 | -94.88598 | 35001 ft | 492 kts | 45° |
| 2026-05-06 02:43 | 26.25040 | -94.83212 | 35006 ft | 492 kts | 45° |
| 2026-05-06 02:43 | 26.29870 | -94.77806 | 35004 ft | 492 kts | 45° |
| 2026-05-06 02:44 | 26.34695 | -94.72401 | 35003 ft | 492 kts | 45° |
| 2026-05-06 02:44 | 26.39524 | -94.66983 | 34986 ft | 492 kts | 45° |
| 2026-05-06 02:45 | 26.44334 | -94.61581 | 34986 ft | 492 kts | 45° |
| 2026-05-06 02:45 | 26.49155 | -94.56159 | 35008 ft | 492 kts | 45° |
| 2026-05-06 02:46 | 26.53996 | -94.50707 | 35006 ft | 492 kts | 45° |
| 2026-05-06 02:46 | 26.58783 | -94.45309 | 34996 ft | 492 kts | 45° |
| 2026-05-06 02:47 | 26.63590 | -94.39883 | 35005 ft | 492 kts | 45° |
| 2026-05-06 02:47 | 26.68411 | -94.34433 | 35001 ft | 492 kts | 45° |
| 2026-05-06 02:48 | 26.73211 | -94.29001 | 35004 ft | 492 kts | 45° |
| 2026-05-06 02:48 | 26.78016 | -94.23555 | 35003 ft | 492 kts | 45° |
| 2026-05-06 02:49 | 26.82811 | -94.18114 | 35000 ft | 492 kts | 45° |
| 2026-05-06 02:49 | 26.87638 | -94.12630 | 34998 ft | 492 kts | 45° |
| 2026-05-06 02:50 | 26.92448 | -94.07158 | 35002 ft | 492 kts | 45° |
| 2026-05-06 02:50 | 26.97250 | -94.01687 | 35006 ft | 492 kts | 45° |
| 2026-05-06 02:51 | 27.02022 | -93.96245 | 35005 ft | 492 kts | 45° |
| 2026-05-06 02:51 | 27.06833 | -93.90752 | 35005 ft | 492 kts | 45° |
| 2026-05-06 02:52 | 27.11628 | -93.85271 | 34986 ft | 492 kts | 45° |
| 2026-05-06 02:52 | 27.16391 | -93.79818 | 34986 ft | 492 kts | 45° |
| 2026-05-06 02:53 | 27.21183 | -93.74327 | 34994 ft | 492 kts | 45° |
| 2026-05-06 02:53 | 27.25961 | -93.68844 | 35007 ft | 492 kts | 45° |
| 2026-05-06 02:54 | 27.30751 | -93.63341 | 35003 ft | 492 kts | 45° |
| 2026-05-06 02:54 | 27.35529 | -93.57843 | 34991 ft | 492 kts | 45° |
| 2026-05-06 02:55 | 27.40301 | -93.52346 | 35003 ft | 492 kts | 45° |
| 2026-05-06 02:55 | 27.45074 | -93.46840 | 34994 ft | 492 kts | 45° |
| 2026-05-06 02:56 | 27.49867 | -93.41305 | 35003 ft | 492 kts | 45° |
| 2026-05-06 02:56 | 27.54642 | -93.35782 | 34999 ft | 492 kts | 45° |
| 2026-05-06 02:57 | 27.59407 | -93.30264 | 35004 ft | 492 kts | 45° |
| 2026-05-06 02:57 | 27.64172 | -93.24738 | 35001 ft | 492 kts | 45° |
| 2026-05-06 02:58 | 27.68925 | -93.19219 | 35001 ft | 492 kts | 45° |
| 2026-05-06 02:58 | 27.73697 | -93.13673 | 34999 ft | 492 kts | 46° |
| 2026-05-06 02:59 | 27.78447 | -93.08146 | 35003 ft | 492 kts | 46° |
| 2026-05-06 02:59 | 27.83212 | -93.02594 | 35002 ft | 492 kts | 46° |
| 2026-05-06 03:00 | 27.87936 | -92.97082 | 34999 ft | 492 kts | 46° |
| 2026-05-06 03:00 | 27.92697 | -92.91519 | 35001 ft | 492 kts | 46° |
| 2026-05-06 03:01 | 27.97474 | -92.85930 | 35001 ft | 492 kts | 46° |
| 2026-05-06 03:01 | 28.02239 | -92.80348 | 35003 ft | 492 kts | 46° |
| 2026-05-06 03:02 | 28.06990 | -92.74775 | 35007 ft | 492 kts | 46° |
| 2026-05-06 03:02 | 28.11729 | -92.69207 | 35002 ft | 492 kts | 46° |
| 2026-05-06 03:03 | 28.16452 | -92.63643 | 35003 ft | 492 kts | 46° |
| 2026-05-06 03:03 | 28.21213 | -92.58025 | 35007 ft | 492 kts | 46° |
| 2026-05-06 03:04 | 28.25973 | -92.52403 | 35006 ft | 492 kts | 46° |
| 2026-05-06 03:04 | 28.30692 | -92.46819 | 35001 ft | 492 kts | 46° |
| 2026-05-06 03:05 | 28.35381 | -92.41269 | 34994 ft | 492 kts | 46° |
| 2026-05-06 03:05 | 28.40136 | -92.35633 | 35002 ft | 492 kts | 46° |
| 2026-05-06 03:06 | 28.44873 | -92.30009 | 35008 ft | 492 kts | 46° |
| 2026-05-06 03:06 | 28.49599 | -92.24390 | 35004 ft | 492 kts | 46° |
| 2026-05-06 03:07 | 28.54347 | -92.18737 | 35004 ft | 492 kts | 46° |
| 2026-05-06 03:07 | 28.59064 | -92.13112 | 35003 ft | 492 kts | 46° |
| 2026-05-06 03:08 | 28.63777 | -92.07486 | 35002 ft | 492 kts | 46° |
| 2026-05-06 03:08 | 28.68477 | -92.01867 | 34996 ft | 492 kts | 46° |
| 2026-05-06 03:09 | 28.73190 | -91.96224 | 35005 ft | 492 kts | 46° |
| 2026-05-06 03:09 | 28.77139 | -91.91490 | 35004 ft | 492 kts | 46° |
| 2026-05-06 03:10 | 28.81824 | -91.85866 | 35000 ft | 492 kts | 46° |
| 2026-05-06 03:10 | 28.86580 | -91.80150 | 35004 ft | 492 kts | 46° |
| 2026-05-06 03:11 | 28.91267 | -91.74508 | 35002 ft | 492 kts | 46° |
| 2026-05-06 03:11 | 28.95986 | -91.68819 | 34994 ft | 492 kts | 46° |
| 2026-05-06 03:12 | 29.00678 | -91.63155 | 35000 ft | 492 kts | 46° |
| 2026-05-06 03:12 | 29.05390 | -91.57459 | 34999 ft | 492 kts | 46° |
| 2026-05-06 03:13 | 29.10096 | -91.51761 | 35002 ft | 492 kts | 46° |
| 2026-05-06 03:13 | 29.14821 | -91.46033 | 34994 ft | 492 kts | 46° |
| 2026-05-06 03:14 | 29.19515 | -91.40335 | 35000 ft | 492 kts | 46° |
| 2026-05-06 03:14 | 29.24191 | -91.34650 | 35001 ft | 492 kts | 46° |
| 2026-05-06 03:15 | 29.28869 | -91.28954 | 35003 ft | 492 kts | 46° |
| 2026-05-06 03:15 | 29.33559 | -91.23236 | 34996 ft | 492 kts | 46° |
| 2026-05-06 03:16 | 29.38262 | -91.17494 | 34995 ft | 492 kts | 46° |
| 2026-05-06 03:16 | 29.42918 | -91.11801 | 34994 ft | 492 kts | 46° |
| 2026-05-06 03:17 | 29.47592 | -91.06077 | 34998 ft | 492 kts | 46° |
| 2026-05-06 03:17 | 29.52292 | -91.00313 | 35003 ft | 492 kts | 47° |
| 2026-05-06 03:18 | 29.56947 | -90.94596 | 35001 ft | 492 kts | 47° |
| 2026-05-06 03:18 | 29.61644 | -90.88819 | 34987 ft | 492 kts | 47° |
| 2026-05-06 03:19 | 29.65722 | -90.82522 | 35001 ft | 492 kts | 62° |
| 2026-05-06 03:19 | 29.68190 | -90.75252 | 34986 ft | 492 kts | 76° |
| 2026-05-06 03:20 | 29.70775 | -90.63809 | 35000 ft | 492 kts | 75° |
| 2026-05-06 03:20 | 29.72507 | -90.56207 | 35003 ft | 493 kts | 75° |
| 2026-05-06 03:21 | 29.74240 | -90.48545 | 35003 ft | 493 kts | 75° |
| 2026-05-06 03:21 | 29.75956 | -90.40925 | 34999 ft | 493 kts | 75° |
| 2026-05-06 03:22 | 29.77675 | -90.33273 | 35004 ft | 493 kts | 75° |
| 2026-05-06 03:22 | 29.79382 | -90.25649 | 35003 ft | 493 kts | 75° |
| 2026-05-06 03:23 | 29.81084 | -90.18028 | 35007 ft | 493 kts | 75° |
| 2026-05-06 03:23 | 29.82788 | -90.10378 | 35003 ft | 492 kts | 76° |
| 2026-05-06 03:24 | 29.84608 | -90.02830 | 35008 ft | 492 kts | 70° |
| 2026-05-06 03:24 | 29.87517 | -89.95712 | 35008 ft | 492 kts | 59° |
| 2026-05-06 03:25 | 29.91169 | -89.89017 | 35003 ft | 491 kts | 58° |
| 2026-05-06 03:25 | 29.94790 | -89.82317 | 35003 ft | 492 kts | 58° |
| 2026-05-06 03:26 | 29.98418 | -89.75602 | 34997 ft | 492 kts | 58° |
| 2026-05-06 03:26 | 30.02014 | -89.68942 | 35000 ft | 492 kts | 58° |
| 2026-05-06 03:27 | 30.05641 | -89.62216 | 35003 ft | 492 kts | 58° |
| 2026-05-06 03:27 | 30.09260 | -89.55492 | 35002 ft | 492 kts | 58° |
| 2026-05-06 03:28 | 30.12863 | -89.48786 | 35003 ft | 492 kts | 58° |
| 2026-05-06 03:28 | 30.16477 | -89.42049 | 35003 ft | 492 kts | 58° |
| 2026-05-06 03:29 | 30.20088 | -89.35307 | 35000 ft | 492 kts | 58° |
| 2026-05-06 03:29 | 30.23672 | -89.28604 | 35000 ft | 492 kts | 58° |
| 2026-05-06 03:30 | 30.27268 | -89.21867 | 35003 ft | 492 kts | 58° |
| 2026-05-06 03:30 | 30.30879 | -89.15091 | 34986 ft | 492 kts | 58° |
| 2026-05-06 03:31 | 30.34464 | -89.08351 | 34987 ft | 492 kts | 58° |
| 2026-05-06 03:31 | 30.38033 | -89.01630 | 35002 ft | 492 kts | 58° |
| 2026-05-06 03:32 | 30.41611 | -88.94881 | 35006 ft | 492 kts | 58° |
| 2026-05-06 03:32 | 30.45212 | -88.88078 | 35000 ft | 492 kts | 58° |
| 2026-05-06 03:33 | 30.48793 | -88.81299 | 35003 ft | 492 kts | 58° |
| 2026-05-06 03:33 | 30.52344 | -88.74568 | 34996 ft | 492 kts | 58° |
| 2026-05-06 03:34 | 30.55909 | -88.67796 | 35001 ft | 492 kts | 58° |
| 2026-05-06 03:34 | 30.59462 | -88.61037 | 34995 ft | 492 kts | 58° |
| 2026-05-06 03:35 | 30.63030 | -88.54237 | 35000 ft | 492 kts | 58° |
| 2026-05-06 03:35 | 30.66585 | -88.47451 | 35002 ft | 492 kts | 58° |
| 2026-05-06 03:36 | 30.70156 | -88.40622 | 35000 ft | 492 kts | 58° |
| 2026-05-06 03:36 | 30.73980 | -88.34090 | 35005 ft | 492 kts | 50° |
| 2026-05-06 03:37 | 30.78514 | -88.28097 | 35006 ft | 492 kts | 49° |
| 2026-05-06 03:37 | 30.82991 | -88.22129 | 35005 ft | 492 kts | 49° |
| 2026-05-06 03:38 | 30.87471 | -88.16150 | 35002 ft | 492 kts | 49° |
| 2026-05-06 03:38 | 30.92001 | -88.10101 | 35001 ft | 492 kts | 49° |
| 2026-05-06 03:39 | 30.96496 | -88.04089 | 35005 ft | 493 kts | 49° |
| 2026-05-06 03:39 | 31.00996 | -87.98062 | 35001 ft | 493 kts | 49° |
| 2026-05-06 03:40 | 31.05488 | -87.92036 | 35008 ft | 492 kts | 49° |
| 2026-05-06 03:40 | 31.09953 | -87.86036 | 35008 ft | 492 kts | 49° |
| 2026-05-06 03:41 | 31.14462 | -87.79969 | 35004 ft | 492 kts | 49° |
| 2026-05-06 03:41 | 31.18925 | -87.73954 | 34986 ft | 492 kts | 49° |
| 2026-05-06 03:42 | 31.23395 | -87.67919 | 34983 ft | 492 kts | 49° |
| 2026-05-06 03:42 | 31.27890 | -87.61842 | 34982 ft | 492 kts | 49° |
| 2026-05-06 03:43 | 31.32130 | -87.55607 | 34980 ft | 492 kts | 56° |
| 2026-05-06 03:43 | 31.35927 | -87.48976 | 34984 ft | 492 kts | 56° |
| 2026-05-06 03:44 | 31.39768 | -87.42351 | 34986 ft | 492 kts | 56° |
| 2026-05-06 03:44 | 31.43609 | -87.35712 | 35002 ft | 493 kts | 56° |
| 2026-05-06 03:45 | 31.47440 | -87.29070 | 35002 ft | 493 kts | 56° |
| 2026-05-06 03:45 | 31.51274 | -87.22406 | 35004 ft | 493 kts | 56° |
| 2026-05-06 03:46 | 31.55108 | -87.15728 | 35002 ft | 493 kts | 56° |
| 2026-05-06 03:46 | 31.58949 | -87.09025 | 34998 ft | 493 kts | 56° |
| 2026-05-06 03:47 | 31.62747 | -87.02388 | 34999 ft | 493 kts | 56° |
| 2026-05-06 03:47 | 31.66563 | -86.95705 | 34999 ft | 493 kts | 56° |
| 2026-05-06 03:48 | 31.70380 | -86.89011 | 34986 ft | 493 kts | 56° |
| 2026-05-06 03:48 | 31.74181 | -86.82333 | 35008 ft | 493 kts | 56° |
| 2026-05-06 03:49 | 31.77359 | -86.76739 | 34998 ft | 492 kts | 56° |
| 2026-05-06 03:49 | 31.81157 | -86.70045 | 34985 ft | 493 kts | 56° |
| 2026-05-06 03:50 | 31.84954 | -86.63342 | 34984 ft | 493 kts | 56° |
| 2026-05-06 03:50 | 31.88745 | -86.56635 | 34983 ft | 493 kts | 56° |
| 2026-05-06 03:51 | 31.92526 | -86.49936 | 35003 ft | 493 kts | 56° |
| 2026-05-06 03:51 | 31.96316 | -86.43209 | 35005 ft | 493 kts | 56° |
| 2026-05-06 03:52 | 32.00105 | -86.36471 | 35008 ft | 493 kts | 56° |
| 2026-05-06 03:52 | 32.03896 | -86.29719 | 35005 ft | 493 kts | 56° |
| 2026-05-06 03:53 | 32.07672 | -86.22981 | 35006 ft | 493 kts | 56° |
| 2026-05-06 03:53 | 32.11446 | -86.16235 | 34999 ft | 493 kts | 56° |
| 2026-05-06 03:54 | 32.15215 | -86.09484 | 35008 ft | 493 kts | 56° |
| 2026-05-06 03:54 | 32.18982 | -86.02726 | 35001 ft | 493 kts | 56° |
| 2026-05-06 03:55 | 32.22746 | -85.95962 | 35004 ft | 493 kts | 57° |
| 2026-05-06 03:55 | 32.26511 | -85.89183 | 35002 ft | 493 kts | 57° |
| 2026-05-06 03:56 | 32.30261 | -85.82419 | 35005 ft | 493 kts | 57° |
| 2026-05-06 03:56 | 32.34014 | -85.75638 | 35000 ft | 493 kts | 57° |
| 2026-05-06 03:57 | 32.37762 | -85.68855 | 34999 ft | 493 kts | 57° |
| 2026-05-06 03:57 | 32.41521 | -85.62038 | 35003 ft | 493 kts | 57° |
| 2026-05-06 03:58 | 32.45247 | -85.55269 | 35001 ft | 493 kts | 57° |
| 2026-05-06 03:58 | 32.48980 | -85.48476 | 35002 ft | 493 kts | 57° |
| 2026-05-06 03:59 | 32.52711 | -85.41674 | 35005 ft | 493 kts | 57° |
| 2026-05-06 03:59 | 32.56444 | -85.34855 | 35006 ft | 493 kts | 57° |
| 2026-05-06 04:00 | 32.60183 | -85.28014 | 34998 ft | 493 kts | 57° |
| 2026-05-06 04:00 | 32.63900 | -85.21198 | 35002 ft | 493 kts | 57° |
| 2026-05-06 04:01 | 32.67625 | -85.14358 | 34999 ft | 493 kts | 57° |
| 2026-05-06 04:01 | 32.71337 | -85.07528 | 35004 ft | 494 kts | 57° |
| 2026-05-06 04:02 | 32.75072 | -85.00644 | 34987 ft | 494 kts | 57° |
| 2026-05-06 04:02 | 32.78785 | -84.93787 | 34997 ft | 494 kts | 57° |
| 2026-05-06 04:03 | 32.82481 | -84.86948 | 35003 ft | 494 kts | 57° |
| 2026-05-06 04:03 | 32.86183 | -84.80087 | 34986 ft | 494 kts | 57° |
| 2026-05-06 04:04 | 32.89895 | -84.73195 | 35006 ft | 494 kts | 57° |
| 2026-05-06 04:04 | 32.93603 | -84.66297 | 35000 ft | 494 kts | 57° |
| 2026-05-06 04:05 | 32.97305 | -84.59396 | 34992 ft | 494 kts | 57° |
| 2026-05-06 04:05 | 33.00968 | -84.52557 | 35007 ft | 494 kts | 57° |
| 2026-05-06 04:06 | 33.04687 | -84.45599 | 35001 ft | 494 kts | 57° |
| 2026-05-06 04:06 | 33.08363 | -84.38709 | 34998 ft | 494 kts | 57° |
| 2026-05-06 04:07 | 33.12043 | -84.31798 | 35008 ft | 493 kts | 57° |
| 2026-05-06 04:07 | 33.15706 | -84.24907 | 35005 ft | 493 kts | 57° |
| 2026-05-06 04:08 | 33.19393 | -84.17957 | 35009 ft | 493 kts | 57° |
| 2026-05-06 04:08 | 33.23059 | -84.11034 | 34986 ft | 494 kts | 57° |
| 2026-05-06 04:09 | 33.26732 | -84.04086 | 35001 ft | 494 kts | 57° |
| 2026-05-06 04:09 | 33.30374 | -83.97181 | 35005 ft | 494 kts | 58° |
| 2026-05-06 04:10 | 33.34023 | -83.90252 | 35004 ft | 494 kts | 58° |
| 2026-05-06 04:10 | 33.37695 | -83.83265 | 35003 ft | 494 kts | 58° |
| 2026-05-06 04:11 | 33.41347 | -83.76303 | 35005 ft | 494 kts | 58° |
| 2026-05-06 04:11 | 33.44982 | -83.69361 | 35005 ft | 494 kts | 58° |
| 2026-05-06 04:12 | 33.48623 | -83.62392 | 35004 ft | 494 kts | 58° |
| 2026-05-06 04:12 | 33.52253 | -83.55433 | 35005 ft | 494 kts | 58° |
| 2026-05-06 04:13 | 33.55887 | -83.48451 | 34997 ft | 494 kts | 58° |
| 2026-05-06 04:13 | 33.59517 | -83.41463 | 35004 ft | 494 kts | 58° |
| 2026-05-06 04:14 | 33.63139 | -83.34481 | 35003 ft | 494 kts | 58° |
| 2026-05-06 04:14 | 33.66783 | -83.27438 | 35007 ft | 494 kts | 58° |
| 2026-05-06 04:15 | 33.70391 | -83.20454 | 35002 ft | 494 kts | 58° |
| 2026-05-06 04:15 | 33.74000 | -83.13455 | 34995 ft | 493 kts | 58° |
| 2026-05-06 04:16 | 33.77596 | -83.06468 | 35006 ft | 493 kts | 58° |
| 2026-05-06 04:16 | 33.81209 | -82.99438 | 35006 ft | 493 kts | 58° |
| 2026-05-06 04:17 | 33.84817 | -82.92410 | 35003 ft | 493 kts | 58° |
| 2026-05-06 04:17 | 33.88411 | -82.85405 | 35000 ft | 493 kts | 58° |
| 2026-05-06 04:18 | 33.92094 | -82.78439 | 35001 ft | 493 kts | 57° |
| 2026-05-06 04:18 | 33.95778 | -82.71502 | 35001 ft | 493 kts | 57° |
| 2026-05-06 04:19 | 33.99482 | -82.64487 | 35005 ft | 493 kts | 57° |
| 2026-05-06 04:19 | 34.03132 | -82.57554 | 35003 ft | 493 kts | 57° |
| 2026-05-06 04:20 | 34.06832 | -82.50512 | 35003 ft | 493 kts | 57° |
| 2026-05-06 04:20 | 34.10484 | -82.43547 | 35001 ft | 493 kts | 57° |
| 2026-05-06 04:21 | 34.14140 | -82.36564 | 34999 ft | 493 kts | 57° |
| 2026-05-06 04:21 | 34.17804 | -82.29548 | 35001 ft | 493 kts | 58° |
| 2026-05-06 04:22 | 34.21451 | -82.22553 | 34986 ft | 493 kts | 58° |
| 2026-05-06 04:23 | 34.26921 | -82.11997 | 35003 ft | 493 kts | 58° |
| 2026-05-06 04:23 | 34.30466 | -82.04923 | 35004 ft | 493 kts | 59° |
| 2026-05-06 04:24 | 34.34025 | -81.97813 | 35006 ft | 493 kts | 58° |
| 2026-05-06 04:24 | 34.37582 | -81.90716 | 35000 ft | 493 kts | 58° |
| 2026-05-06 04:25 | 34.41128 | -81.83632 | 35006 ft | 493 kts | 58° |
| 2026-05-06 04:25 | 34.44686 | -81.76508 | 35003 ft | 493 kts | 59° |
| 2026-05-06 04:26 | 34.48237 | -81.69386 | 35007 ft | 493 kts | 59° |
| 2026-05-06 04:26 | 34.51777 | -81.62269 | 35001 ft | 493 kts | 59° |
| 2026-05-06 04:27 | 34.55315 | -81.55143 | 35001 ft | 493 kts | 59° |
| 2026-05-06 04:27 | 34.58848 | -81.48013 | 34995 ft | 493 kts | 59° |
| 2026-05-06 04:28 | 34.62369 | -81.40894 | 35004 ft | 493 kts | 59° |
| 2026-05-06 04:28 | 34.65893 | -81.33752 | 35003 ft | 493 kts | 59° |
| 2026-05-06 04:29 | 34.69423 | -81.26585 | 35006 ft | 493 kts | 59° |
| 2026-05-06 04:29 | 34.72943 | -81.19422 | 35003 ft | 493 kts | 59° |
| 2026-05-06 04:30 | 34.76431 | -81.12310 | 35000 ft | 493 kts | 59° |
| 2026-05-06 04:30 | 34.79887 | -81.05056 | 35001 ft | 493 kts | 63° |
| 2026-05-06 04:31 | 34.82687 | -80.97498 | 35001 ft | 493 kts | 65° |
| 2026-05-06 04:31 | 34.85511 | -80.89883 | 34999 ft | 493 kts | 65° |
| 2026-05-06 04:32 | 34.88322 | -80.82274 | 35002 ft | 494 kts | 66° |
| 2026-05-06 04:32 | 34.91139 | -80.74610 | 35004 ft | 494 kts | 66° |
| 2026-05-06 04:33 | 34.93934 | -80.66980 | 35001 ft | 494 kts | 66° |
| 2026-05-06 04:33 | 34.96724 | -80.59348 | 35005 ft | 494 kts | 66° |
| 2026-05-06 04:34 | 34.99518 | -80.51685 | 35003 ft | 494 kts | 66° |
| 2026-05-06 04:34 | 35.02301 | -80.44036 | 35000 ft | 494 kts | 66° |
| 2026-05-06 04:35 | 35.05083 | -80.36369 | 35007 ft | 494 kts | 66° |
| 2026-05-06 04:35 | 35.07854 | -80.28714 | 35005 ft | 493 kts | 66° |
| 2026-05-06 04:36 | 35.10620 | -80.21057 | 35007 ft | 493 kts | 66° |
| 2026-05-06 04:36 | 35.13388 | -80.13373 | 35004 ft | 493 kts | 66° |
| 2026-05-06 04:37 | 35.15677 | -80.07007 | 35001 ft | 493 kts | 66° |
| 2026-05-06 04:37 | 35.18430 | -79.99332 | 35003 ft | 493 kts | 66° |
| 2026-05-06 04:38 | 35.21179 | -79.91661 | 35005 ft | 493 kts | 66° |
| 2026-05-06 04:38 | 35.23947 | -79.83927 | 34985 ft | 493 kts | 66° |
| 2026-05-06 04:39 | 35.26665 | -79.76312 | 34985 ft | 493 kts | 66° |
| 2026-05-06 04:39 | 35.29421 | -79.68572 | 34986 ft | 493 kts | 66° |
| 2026-05-06 04:40 | 35.32155 | -79.60874 | 35003 ft | 493 kts | 66° |
| 2026-05-06 04:40 | 35.34866 | -79.53223 | 35004 ft | 493 kts | 66° |
| 2026-05-06 04:41 | 35.37610 | -79.45457 | 34999 ft | 493 kts | 66° |
| 2026-05-06 04:41 | 35.40317 | -79.37781 | 35009 ft | 494 kts | 66° |
| 2026-05-06 04:42 | 35.43034 | -79.30054 | 35005 ft | 494 kts | 66° |
| 2026-05-06 04:42 | 35.45760 | -79.22282 | 35003 ft | 493 kts | 66° |
| 2026-05-06 04:43 | 35.48462 | -79.14561 | 35002 ft | 493 kts | 66° |
| 2026-05-06 04:43 | 35.51157 | -79.06838 | 34998 ft | 493 kts | 66° |
| 2026-05-06 04:44 | 35.53852 | -78.99097 | 35004 ft | 493 kts | 67° |
| 2026-05-06 04:44 | 35.56543 | -78.91349 | 34999 ft | 493 kts | 67° |
| 2026-05-06 04:45 | 35.59221 | -78.83619 | 35006 ft | 493 kts | 67° |
| 2026-05-06 04:45 | 35.61906 | -78.75853 | 35006 ft | 493 kts | 67° |
| 2026-05-06 04:46 | 35.64573 | -78.68104 | 35003 ft | 493 kts | 67° |
| 2026-05-06 04:46 | 35.67243 | -78.60331 | 35000 ft | 493 kts | 67° |
| 2026-05-06 04:47 | 35.69898 | -78.52582 | 35003 ft | 493 kts | 67° |
| 2026-05-06 04:47 | 35.72555 | -78.44808 | 35000 ft | 493 kts | 67° |
| 2026-05-06 04:48 | 35.75206 | -78.37033 | 35000 ft | 493 kts | 67° |
| 2026-05-06 04:48 | 35.77852 | -78.29262 | 35002 ft | 493 kts | 67° |
| 2026-05-06 04:49 | 35.80505 | -78.21449 | 35002 ft | 493 kts | 67° |
| 2026-05-06 04:49 | 35.83128 | -78.13706 | 35005 ft | 493 kts | 67° |
| 2026-05-06 04:50 | 35.85772 | -78.05877 | 35000 ft | 493 kts | 67° |
| 2026-05-06 04:50 | 35.88382 | -77.98130 | 35005 ft | 493 kts | 67° |
| 2026-05-06 04:51 | 35.91021 | -77.90277 | 34995 ft | 493 kts | 67° |
| 2026-05-06 04:51 | 35.93637 | -77.82474 | 35002 ft | 493 kts | 67° |
| 2026-05-06 04:52 | 35.96311 | -77.74742 | 35003 ft | 492 kts | 63° |
| 2026-05-06 04:52 | 35.99964 | -77.67566 | 34999 ft | 492 kts | 52° |
| 2026-05-06 04:53 | 36.04504 | -77.61265 | 34985 ft | 492 kts | 47° |
| 2026-05-06 04:53 | 36.09130 | -77.55047 | 34986 ft | 492 kts | 47° |
| 2026-05-06 04:54 | 36.13763 | -77.48805 | 34999 ft | 492 kts | 47° |
| 2026-05-06 04:54 | 36.18391 | -77.42568 | 35002 ft | 492 kts | 47° |
| 2026-05-06 04:55 | 36.23013 | -77.36331 | 35003 ft | 492 kts | 47° |
| 2026-05-06 04:55 | 36.27640 | -77.30074 | 34989 ft | 492 kts | 47° |
| 2026-05-06 04:56 | 36.32334 | -77.23916 | 35004 ft | 492 kts | 42° |
| 2026-05-06 04:56 | 36.37424 | -77.18269 | 34986 ft | 492 kts | 42° |
| 2026-05-06 04:57 | 36.42522 | -77.12557 | 35003 ft | 492 kts | 42° |
| 2026-05-06 04:57 | 36.47570 | -77.06892 | 35005 ft | 492 kts | 42° |
| 2026-05-06 04:58 | 36.52641 | -77.01195 | 35001 ft | 492 kts | 42° |
| 2026-05-06 04:58 | 36.57716 | -76.95483 | 35001 ft | 492 kts | 42° |
| 2026-05-06 04:59 | 36.62753 | -76.89804 | 35003 ft | 492 kts | 42° |
| 2026-05-06 04:59 | 36.67845 | -76.84053 | 34994 ft | 492 kts | 42° |
| 2026-05-06 05:00 | 36.72917 | -76.78313 | 34995 ft | 492 kts | 42° |
| 2026-05-06 05:00 | 36.77986 | -76.72567 | 35004 ft | 492 kts | 42° |
| 2026-05-06 05:01 | 36.83023 | -76.66844 | 35004 ft | 492 kts | 42° |
| 2026-05-06 05:01 | 36.88074 | -76.61096 | 35003 ft | 492 kts | 42° |
| 2026-05-06 05:02 | 36.93131 | -76.55331 | 35001 ft | 492 kts | 42° |
| 2026-05-06 05:02 | 36.98206 | -76.49534 | 35001 ft | 492 kts | 42° |
| 2026-05-06 05:03 | 37.03245 | -76.43766 | 35004 ft | 492 kts | 42° |
| 2026-05-06 05:03 | 37.08274 | -76.38000 | 35005 ft | 492 kts | 42° |
| 2026-05-06 05:04 | 37.13321 | -76.32202 | 35004 ft | 492 kts | 42° |
| 2026-05-06 05:04 | 37.18363 | -76.26400 | 35005 ft | 492 kts | 42° |
| 2026-05-06 05:05 | 37.23397 | -76.20595 | 35004 ft | 492 kts | 42° |
| 2026-05-06 05:05 | 37.28441 | -76.14767 | 34993 ft | 492 kts | 42° |